ePrivacy and GPDR Cookie Consent by Cookie Consent
EmailTwitter


Observations de surface / Québec / CYUL (71627)

Régions: Québec | Canada | États-Unis | Europe | France | UK | Ailleurs
Station
Affichage
Infos & localisation pour CYUL (71627) | Aide pour décoder les METARs

Observations prises le 2022-07-07 à 02H00 UTC à MONTREAL INTL A, QB (CYUL)

Etat du ciel: quelques nuages.

Température: 21.0 Celsius

Point de rosée: 9.0 Celsius

Humidité relative: 46%

Vents: Nord à 7 km/h ou 4 noeuds.

Pression au niveau moyen de la mer: 101.53 kilopascals.

Calage altimétrique: 101.52 kilopascals ou 29.98 pouces de mercure.

Visibilité horizontale: 15.00 milles terrestres ou 24.00 kilomètres.

Observation METAR:

CYUL 070200Z 36004KT 310V020 15SM FEW070 21/09 A2998 RMK AC1 SLP153 DENSITY ALT

800FT=